BIKFCYFB

Guest
Details From BIKF - Keflavik Nas
To CYFB - Iqaluit
Flight Number -
Tags Generated
Created
Modified
Stats Distance 1,191 nm / 2,205 km
Max Altitude 0 ft / 0 m
Waypoints 3
Social Downloads 3
Likes 0
Share VATSIM

Download

Looking for another format? Having issues loading an existing format? Contact us
Advertisement - Login to hide

Notes

Generated

Route

BIKF YFB CYFB

ID Type Via Altitude Latitude Longitude Leg Dist Tot Dist Heading (true) Name
O BIKF APT - 0 ft / 0 m 63.96448˚ -22.60545˚ - 0 nm - -
YFB VOR - 0 ft / 0 m 63.74167˚ -68.47333˚ 1187 nm 1187 nm 290° / 249° FROBAY VOR
O CYFB APT - 0 ft / 0 m 63.76497˚ -68.57398˚ 3 nm 1190 nm 298° / 298° -

Altitude Profile

Advertisement - Login to hide

Weather


0- 5 10 15 20 25 30 35+ Temperature / ° C

Clouds and Precipitation
Forecast for 2018-05-23 12:00 UTC. Updated 20 minutes ago

Ground ~20,000 ft ~40,000 ft Winds

BIKF

Details ICAO BIKF (KEF)
Name Keflavik
Region Iceland
Timezone Atlantic/Reykjavik (UTC+0.0)
Stats Elevation 170 ft / 52 m (AMSL)
Location 63.981612° -22.614563°
Runways 2
Magnetic Variation 13.951° W

METAR

BIKF 230930Z 20022KT 9999 FEW025TCU SCT045 07/03 Q1008

Decode

TAF

TAF BIKF 230756Z 2309/2409 20023G35KT 9999 -SHRA FEW025 BKN040 TX09/2315Z TN03/2404Z BECMG 2314/2317 19015KT BECMG 2321/2324 15005KT BECMG 2406/2409 28010KT

Decode

Departure Runways

ID Width Length Bearing (true) Bearing (mag) Surface Threshold Offset Overrun Length
02 197 ft / 60 m 9,997 ft / 3,047 m 0.02° 13.97° Asphalt 0 ft / 0 m 492 ft / 150 m
11 197 ft / 60 m 10,022 ft / 3,055 m 89.97° 103.92° Asphalt 0 ft / 0 m 246 ft / 75 m
20 197 ft / 60 m 9,997 ft / 3,047 m 180.02° 193.97° Asphalt 0 ft / 0 m 98 ft / 30 m
29 197 ft / 60 m 10,022 ft / 3,055 m 270.02° 283.97° Asphalt 0 ft / 0 m 197 ft / 60 m

CYFB

Details ICAO CYFB (YFB)
Name Iqaluit
Region Canada
Timezone America/Iqaluit (UTC-4.0)
Stats Elevation 110 ft / 34 m (AMSL)
Location 63.756565° -68.556058°
Runways 1
Magnetic Variation 27.373° W

METAR

CYFB 230900Z 32013KT 15SM -SN DRSN SCT014 BKN023 OVC038 M04/M07 A2980 RMK SC4SC3SC1 -SN INTMT VIS S HIER SLP096

Decode

TAF

TAF TAF CYFB 230546Z 2306/2406 32015KT P6SM FEW015 BKN030 TEMPO 2306/2406 P6SM -SN BKN015 OVC030 BECMG 2310/2312 33020KT RMK NXT FCST BY 231200Z

Decode

Destination Runways

ID Width Length Bearing (true) Bearing (mag) Surface Threshold Offset Overrun Length
17 200 ft / 61 m 8,605 ft / 2,623 m 135.58° 162.95° Asphalt 0 ft / 0 m 210 ft / 64 m
35 200 ft / 61 m 8,605 ft / 2,623 m 315.62° 342.99° Asphalt 0 ft / 0 m 243 ft / 74 m

Popular Alternatives